Time;durP1;ratioP1;P1;durP2;ratioP2;P2;SDS_P1;SDS_P2;PMS_P1;PMS_P2;Temp;Humidity;BMP_temperature;BMP_pressure;BME280_temperature;BME280_humidity;BME280_pressure;Samples;Min_cycle;Max_cycle;Signal;HPM_P1;HPM_P2
2023/10/06 00:00:53;;;;;;;16.57;7.03;;;;;;;;;;5019229;28;20560;-67
2023/10/06 00:03:20;;;;;;;14.83;6.80;;;;;;;;;;5016183;28;20214;-69
2023/10/06 00:05:50;;;;;;;14.73;7.30;;;;;;;;;;5017423;28;20556;-68
2023/10/06 00:08:22;;;;;;;14.23;7.37;;;;;;;;;;5017559;28;20207;-70
2023/10/06 00:10:51;;;;;;;15.57;7.53;;;;;;;;;;5018007;28;20180;-68
2023/10/06 00:13:28;;;;;;;15.23;6.93;;;;;;;;;;5017357;28;20188;-68
2023/10/06 00:15:55;;;;;;;13.30;6.60;;;;;;;;;;5019792;28;20164;-70
2023/10/06 00:18:26;;;;;;;16.47;7.20;;;;;;;;;;5019285;28;20211;-68
2023/10/06 00:20:56;;;;;;;15.23;7.10;;;;;;;;;;5015652;28;20630;-68
2023/10/06 00:23:22;;;;;;;17.93;6.83;;;;;;;;;;5016251;28;20176;-69
2023/10/06 00:25:51;;;;;;;15.43;6.67;;;;;;;;;;5016209;28;20643;-68
2023/10/06 00:28:19;;;;;;;10.77;7.10;;;;;;;;;;5015985;28;20199;-68
2023/10/06 00:30:47;;;;;;;17.40;6.90;;;;;;;;;;5014970;28;20186;-68
2023/10/06 00:33:14;;;;;;;16.40;7.10;;;;;;;;;;5016660;28;20744;-68
2023/10/06 00:35:41;;;;;;;16.90;7.37;;;;;;;;;;5014846;28;20184;-68
2023/10/06 00:38:16;;;;;;;13.30;6.50;;;;;;;;;;5016291;28;20676;-69
2023/10/06 00:40:50;;;;;;;21.90;7.70;;;;;;;;;;5016237;28;20171;-69
2023/10/06 00:43:21;;;;;;;19.87;7.97;;;;;;;;;;5015805;28;20175;-68
2023/10/06 00:45:48;;;;;;;19.93;6.90;;;;;;;;;;5015377;28;20176;-69
2023/10/06 00:48:14;;;;;;;18.07;6.77;;;;;;;;;;5015955;28;20223;-68
2023/10/06 00:50:42;;;;;;;14.23;6.90;;;;;;;;;;5016003;28;20182;-67
2023/10/06 00:53:10;;;;;;;14.50;7.00;;;;;;;;;;5016072;28;20183;-68
2023/10/06 00:55:37;;;;;;;16.67;7.23;;;;;;;;;;5017183;28;20183;-68
2023/10/06 00:58:10;;;;;;;11.30;7.17;;;;;;;;;;5021294;28;20238;-68
2023/10/06 01:00:37;;;;;;;16.70;7.63;;;;;;;;;;5022842;28;20200;-70
2023/10/06 01:03:09;;;;;;;22.17;7.33;;;;;;;;;;5023933;28;20180;-68
2023/10/06 01:05:35;;;;;;;15.37;7.80;;;;;;;;;;5023368;28;20627;-69
2023/10/06 01:08:05;;;;;;;12.83;6.97;;;;;;;;;;5023419;28;20195;-70
2023/10/06 01:10:34;;;;;;;14.27;7.57;;;;;;;;;;5022752;28;20203;-69
2023/10/06 01:13:11;;;;;;;15.40;7.43;;;;;;;;;;5022177;28;20259;-69
2023/10/06 01:15:44;;;;;;;16.23;7.57;;;;;;;;;;5023691;28;20188;-69
2023/10/06 01:18:23;;;;;;;15.03;6.97;;;;;;;;;;5021767;28;20196;-70
2023/10/06 01:20:49;;;;;;;16.03;7.10;;;;;;;;;;5023353;28;20206;-69
2023/10/06 01:23:21;;;;;;;18.33;6.93;;;;;;;;;;5024254;28;20650;-69
2023/10/06 01:25:55;;;;;;;21.07;7.53;;;;;;;;;;5023034;28;20180;-69
2023/10/06 01:28:23;;;;;;;17.60;7.47;;;;;;;;;;5023536;28;20598;-69
2023/10/06 01:30:50;;;;;;;17.30;6.80;;;;;;;;;;5021434;28;20183;-68
2023/10/06 01:33:17;;;;;;;13.23;6.83;;;;;;;;;;5015366;28;20184;-68
2023/10/06 01:35:43;;;;;;;17.10;6.73;;;;;;;;;;5015609;28;20740;-69
2023/10/06 01:38:22;;;;;;;14.73;6.73;;;;;;;;;;5014052;28;20298;-69
2023/10/06 01:40:51;;;;;;;20.30;7.13;;;;;;;;;;5015176;28;20657;-69
2023/10/06 01:43:22;;;;;;;15.90;7.10;;;;;;;;;;5013960;28;20183;-69
2023/10/06 01:45:49;;;;;;;14.13;6.97;;;;;;;;;;5014741;28;20163;-69
2023/10/06 01:50:50;;;;;;;13.87;6.97;;;;;;;;;;5014687;28;20170;-68
2023/10/06 01:53:18;;;;;;;16.43;7.13;;;;;;;;;;5014042;28;20326;-69
2023/10/06 01:55:49;;;;;;;12.50;6.73;;;;;;;;;;5014366;28;20200;-69
2023/10/06 01:58:15;;;;;;;14.73;6.57;;;;;;;;;;5014230;28;20294;-69
2023/10/06 02:00:45;;;;;;;12.80;6.77;;;;;;;;;;5014848;28;20187;-69
2023/10/06 02:03:11;;;;;;;13.43;6.70;;;;;;;;;;5014153;28;20660;-69
2023/10/06 02:05:40;;;;;;;11.87;6.10;;;;;;;;;;5014153;28;20178;-68
2023/10/06 02:08:09;;;;;;;14.33;7.60;;;;;;;;;;5012935;28;20183;-70
2023/10/06 02:10:35;;;;;;;10.70;7.13;;;;;;;;;;5014279;28;20230;-69
2023/10/06 02:13:01;;;;;;;13.57;6.73;;;;;;;;;;5014364;28;20180;-69
2023/10/06 02:15:27;;;;;;;13.53;6.73;;;;;;;;;;5014146;28;20180;-69
2023/10/06 02:17:53;;;;;;;14.20;6.50;;;;;;;;;;5013953;28;20265;-69
2023/10/06 02:20:30;;;;;;;15.73;7.30;;;;;;;;;;5012647;28;20275;-69
2023/10/06 02:22:59;;;;;;;15.30;7.33;;;;;;;;;;5014369;28;20156;-69
2023/10/06 02:25:26;;;;;;;16.33;6.67;;;;;;;;;;5013634;28;20581;-69
2023/10/06 02:27:56;;;;;;;13.20;6.57;;;;;;;;;;5012324;28;20186;-69
2023/10/06 02:30:39;;;;;;;10.90;6.20;;;;;;;;;;5012452;28;20218;-70
2023/10/06 02:33:05;;;;;;;14.40;6.90;;;;;;;;;;5013639;28;20168;-69
2023/10/06 02:35:32;;;;;;;13.43;7.07;;;;;;;;;;5013552;28;20222;-69
2023/10/06 02:37:58;;;;;;;18.43;7.20;;;;;;;;;;5013593;28;20208;-69
2023/10/06 02:40:38;;;;;;;13.83;7.10;;;;;;;;;;5013709;28;20172;-68
2023/10/06 02:43:09;;;;;;;13.50;6.40;;;;;;;;;;5012646;28;20546;-69
2023/10/06 02:45:40;;;;;;;13.70;6.50;;;;;;;;;;5012370;28;20168;-69
2023/10/06 02:48:14;;;;;;;10.77;6.33;;;;;;;;;;5012177;28;20230;-69
2023/10/06 02:50:44;;;;;;;11.50;7.20;;;;;;;;;;5013500;28;20634;-68
2023/10/06 02:53:13;;;;;;;11.53;7.07;;;;;;;;;;5013718;28;20160;-68
2023/10/06 02:55:43;;;;;;;10.03;6.47;;;;;;;;;;5012150;28;20187;-69
2023/10/06 02:58:09;;;;;;;16.23;6.60;;;;;;;;;;5015292;28;20597;-69
2023/10/06 03:00:36;;;;;;;15.80;6.87;;;;;;;;;;5017755;28;20183;-69
2023/10/06 03:03:12;;;;;;;14.70;6.90;;;;;;;;;;5018651;28;20168;-69
2023/10/06 03:05:39;;;;;;;10.43;6.93;;;;;;;;;;5017084;28;20179;-69
2023/10/06 03:08:08;;;;;;;12.27;7.27;;;;;;;;;;5018161;28;20176;-69
2023/10/06 03:10:42;;;;;;;12.03;6.47;;;;;;;;;;5017697;28;20167;-68
2023/10/06 03:13:08;;;;;;;18.43;7.67;;;;;;;;;;5016775;28;20550;-68
2023/10/06 03:15:45;;;;;;;11.03;7.00;;;;;;;;;;5017365;28;20184;-68
2023/10/06 03:18:12;;;;;;;11.80;6.77;;;;;;;;;;5017085;28;20197;-69
2023/10/06 03:20:46;;;;;;;15.23;7.43;;;;;;;;;;5017512;28;20258;-69
2023/10/06 03:23:23;;;;;;;12.73;6.73;;;;;;;;;;5017633;28;20179;-69
2023/10/06 03:25:53;;;;;;;19.97;7.37;;;;;;;;;;5016107;28;20202;-68
2023/10/06 03:28:19;;;;;;;14.23;7.10;;;;;;;;;;5017017;28;20227;-69
2023/10/06 03:30:49;;;;;;;15.87;7.07;;;;;;;;;;5015847;28;20180;-69
2023/10/06 03:33:16;;;;;;;14.17;7.23;;;;;;;;;;5017240;28;20282;-69
2023/10/06 03:35:48;;;;;;;15.30;7.40;;;;;;;;;;5015392;28;20192;-69
2023/10/06 03:41:31;;;;;;;13.53;7.20;;;;;;;;;;5016866;28;20695;-70
2023/10/06 03:43:53;;;;;;;17.27;7.17;;;;;;;;;;5011087;28;20263;-69
2023/10/06 03:46:19;;;;;;;17.97;7.27;;;;;;;;;;5016852;28;20243;-69
2023/10/06 03:48:48;;;;;;;20.73;7.60;;;;;;;;;;5017360;28;20545;-69
2023/10/06 03:51:16;;;;;;;13.10;7.17;;;;;;;;;;5016321;28;20180;-69
2023/10/06 03:53:42;;;;;;;15.17;7.73;;;;;;;;;;5015063;28;20646;-69
2023/10/06 03:56:12;;;;;;;12.07;7.17;;;;;;;;;;5016158;28;20225;-68
2023/10/06 03:58:38;;;;;;;16.40;7.57;;;;;;;;;;5016613;28;20631;-69
2023/10/06 04:01:11;;;;;;;13.23;7.67;;;;;;;;;;5015878;28;20275;-69
2023/10/06 04:03:38;;;;;;;16.10;7.13;;;;;;;;;;5014882;28;20172;-69
2023/10/06 04:06:04;;;;;;;13.73;7.37;;;;;;;;;;5016392;28;20223;-69
2023/10/06 04:08:30;;;;;;;17.93;6.63;;;;;;;;;;5013967;28;20219;-70
2023/10/06 04:10:59;;;;;;;13.77;6.97;;;;;;;;;;5016189;28;20171;-69
2023/10/06 04:13:26;;;;;;;17.00;6.63;;;;;;;;;;5016024;28;20259;-69
2023/10/06 04:15:52;;;;;;;17.10;7.47;;;;;;;;;;5016450;28;20208;-69
2023/10/06 04:18:22;;;;;;;15.37;6.43;;;;;;;;;;5016077;28;20211;-69
2023/10/06 04:20:49;;;;;;;15.13;7.00;;;;;;;;;;5016065;28;20182;-68
2023/10/06 04:23:17;;;;;;;12.10;7.10;;;;;;;;;;5015966;28;20171;-69
2023/10/06 04:25:43;;;;;;;14.17;6.33;;;;;;;;;;5016012;28;20556;-69
2023/10/06 04:28:13;;;;;;;10.13;6.67;;;;;;;;;;5016122;28;20187;-70
2023/10/06 04:30:41;;;;;;;15.17;6.87;;;;;;;;;;5016006;28;20179;-69
2023/10/06 04:33:10;;;;;;;17.60;7.27;;;;;;;;;;5014472;28;20255;-69
2023/10/06 04:35:39;;;;;;;18.43;7.17;;;;;;;;;;5015771;28;20182;-69
2023/10/06 04:38:05;;;;;;;13.87;7.30;;;;;;;;;;5015811;28;20203;-69
2023/10/06 04:40:32;;;;;;;14.23;7.10;;;;;;;;;;5016427;28;20246;-70
2023/10/06 04:42:59;;;;;;;12.90;6.83;;;;;;;;;;5015730;28;20552;-67
2023/10/06 04:45:25;;;;;;;15.67;7.47;;;;;;;;;;5015404;28;20650;-67
2023/10/06 04:47:55;;;;;;;12.67;6.90;;;;;;;;;;5016505;28;20176;-67
2023/10/06 04:50:21;;;;;;;15.13;6.53;;;;;;;;;;5015127;28;20274;-68
2023/10/06 04:52:47;;;;;;;21.20;7.10;;;;;;;;;;5016705;28;20184;-67
2023/10/06 04:55:13;;;;;;;14.83;6.63;;;;;;;;;;5016459;28;20184;-67
2023/10/06 04:57:43;;;;;;;12.53;6.67;;;;;;;;;;5016153;28;20217;-68
2023/10/06 05:00:19;;;;;;;14.53;6.47;;;;;;;;;;5014589;28;20227;-68
2023/10/06 05:02:47;;;;;;;14.13;6.37;;;;;;;;;;5016051;28;20630;-68
2023/10/06 05:05:13;;;;;;;16.80;7.17;;;;;;;;;;5015632;28;20183;-67
2023/10/06 05:07:39;;;;;;;14.37;7.07;;;;;;;;;;5016185;28;20191;-67
2023/10/06 05:10:08;;;;;;;11.87;5.53;;;;;;;;;;5016890;28;20302;-68
2023/10/06 05:12:37;;;;;;;15.10;7.40;;;;;;;;;;5017246;28;20407;-68
2023/10/06 05:15:03;;;;;;;15.07;6.57;;;;;;;;;;5015609;28;20176;-68
2023/10/06 05:17:29;;;;;;;9.80;5.97;;;;;;;;;;5015347;28;20282;-68
2023/10/06 05:19:55;;;;;;;12.37;6.70;;;;;;;;;;5013480;28;20617;-68
2023/10/06 05:22:21;;;;;;;17.57;6.60;;;;;;;;;;5014326;28;20176;-68
2023/10/06 05:24:47;;;;;;;11.87;6.60;;;;;;;;;;5015197;28;20684;-68
2023/10/06 05:27:13;;;;;;;16.10;6.23;;;;;;;;;;5014985;28;20614;-68
2023/10/06 05:29:39;;;;;;;10.30;6.40;;;;;;;;;;5014569;28;20712;-68
2023/10/06 05:32:06;;;;;;;12.70;6.03;;;;;;;;;;5013324;28;20180;-68
2023/10/06 05:34:33;;;;;;;14.67;6.10;;;;;;;;;;5014620;28;20180;-68
2023/10/06 05:37:00;;;;;;;11.40;6.37;;;;;;;;;;5014342;28;20176;-68
2023/10/06 05:39:28;;;;;;;14.27;6.57;;;;;;;;;;5014512;28;20240;-68
2023/10/06 05:41:54;;;;;;;13.23;5.67;;;;;;;;;;5013014;28;20191;-68
2023/10/06 05:44:21;;;;;;;14.97;6.20;;;;;;;;;;5014466;28;20179;-68
2023/10/06 05:46:47;;;;;;;12.10;6.83;;;;;;;;;;5014903;28;20310;-68
2023/10/06 05:49:13;;;;;;;14.30;6.40;;;;;;;;;;5012797;28;20265;-69
2023/10/06 05:51:39;;;;;;;14.50;6.60;;;;;;;;;;5014198;28;20175;-67
2023/10/06 05:56:47;;;;;;;15.30;6.23;;;;;;;;;;4975128;28;20220;-70
2023/10/06 05:59:18;;;;;;;14.50;6.50;;;;;;;;;;4975319;28;20686;-71
2023/10/06 06:01:46;;;;;;;9.77;5.53;;;;;;;;;;4975817;28;20161;-71
2023/10/06 06:04:12;;;;;;;12.23;5.27;;;;;;;;;;4975088;28;20177;-71
2023/10/06 06:06:39;;;;;;;9.97;5.77;;;;;;;;;;4975044;28;20178;-71
2023/10/06 06:09:14;;;;;;;11.80;5.50;;;;;;;;;;4975204;28;20236;-71
2023/10/06 06:11:40;;;;;;;10.50;5.63;;;;;;;;;;4973996;28;20227;-70
2023/10/06 06:14:06;;;;;;;16.27;7.67;;;;;;;;;;4975100;28;20185;-70
2023/10/06 06:16:32;;;;;;;14.47;7.10;;;;;;;;;;4974034;28;20205;-70
2023/10/06 06:18:59;;;;;;;19.17;12.00;;;;;;;;;;4975281;28;20201;-69
2023/10/06 06:21:25;;;;;;;19.20;11.53;;;;;;;;;;4974952;28;20208;-70
2023/10/06 06:23:55;;;;;;;20.40;9.60;;;;;;;;;;4973984;28;20395;-70
2023/10/06 06:26:21;;;;;;;9.87;5.87;;;;;;;;;;4973672;28;20205;-70
2023/10/06 06:28:47;;;;;;;13.67;5.97;;;;;;;;;;4973674;28;20196;-70
2023/10/06 06:31:19;;;;;;;16.13;8.80;;;;;;;;;;4974820;28;20247;-70
2023/10/06 06:33:55;;;;;;;24.03;15.53;;;;;;;;;;4973291;28;20185;-70
2023/10/06 06:36:21;;;;;;;29.13;15.67;;;;;;;;;;4974523;28;20231;-70
2023/10/06 06:38:48;;;;;;;19.87;11.73;;;;;;;;;;4974457;28;20201;-70
2023/10/06 06:41:15;;;;;;;10.27;6.43;;;;;;;;;;4973109;28;20185;-70
2023/10/06 06:43:45;;;;;;;12.90;6.07;;;;;;;;;;4974651;28;20173;-71
2023/10/06 06:46:11;;;;;;;12.40;5.80;;;;;;;;;;4974945;28;20208;-71
2023/10/06 06:48:38;;;;;;;14.67;5.03;;;;;;;;;;4974473;28;20187;-69
2023/10/06 06:51:04;;;;;;;12.93;5.80;;;;;;;;;;4973334;28;20621;-69
2023/10/06 06:53:30;;;;;;;13.20;4.77;;;;;;;;;;4974432;28;20212;-69
2023/10/06 06:55:56;;;;;;;14.67;6.20;;;;;;;;;;4973148;28;20640;-70
2023/10/06 06:58:23;;;;;;;16.25;7.22;;;;;;;;;;4973358;28;20781;-69
2023/10/06 07:00:49;;;;;;;16.03;6.23;;;;;;;;;;4973563;28;20173;-71
2023/10/06 07:03:15;;;;;;;11.00;4.97;;;;;;;;;;4974445;28;20181;-70
2023/10/06 07:05:40;;;;;;;11.13;5.37;;;;;;;;;;4974249;28;20283;-70
2023/10/06 07:08:07;;;;;;;11.23;4.87;;;;;;;;;;4972853;28;20177;-70
2023/10/06 07:10:38;;;;;;;13.13;5.83;;;;;;;;;;4972956;28;20188;-70
2023/10/06 07:13:05;;;;;;;11.57;4.93;;;;;;;;;;4974335;28;20252;-70
2023/10/06 07:15:32;;;;;;;11.53;5.00;;;;;;;;;;4972907;28;20300;-69
2023/10/06 07:17:58;;;;;;;11.37;4.60;;;;;;;;;;4972943;28;20288;-70
2023/10/06 07:20:27;;;;;;;9.87;4.27;;;;;;;;;;4974031;28;20623;-70
2023/10/06 07:22:53;;;;;;;8.90;4.80;;;;;;;;;;4972886;28;20268;-70
2023/10/06 07:25:19;;;;;;;11.27;4.60;;;;;;;;;;4974147;28;20323;-70
2023/10/06 07:27:49;;;;;;;10.70;4.43;;;;;;;;;;4974157;28;20596;-70
2023/10/06 07:30:16;;;;;;;12.23;4.70;;;;;;;;;;4973016;28;20369;-69
2023/10/06 07:32:46;;;;;;;11.67;5.07;;;;;;;;;;4974947;28;20192;-70
2023/10/06 07:35:13;;;;;;;21.20;5.30;;;;;;;;;;4974657;28;20201;-70
2023/10/06 07:37:42;;;;;;;15.47;5.67;;;;;;;;;;4974586;28;20205;-69
2023/10/06 07:40:13;;;;;;;10.97;5.03;;;;;;;;;;4973209;28;20185;-69
2023/10/06 07:42:40;;;;;;;10.97;5.00;;;;;;;;;;4974640;28;20235;-68
2023/10/06 07:45:07;;;;;;;10.97;4.20;;;;;;;;;;4976667;28;20197;-68
2023/10/06 07:47:36;;;;;;;8.63;4.47;;;;;;;;;;4977914;28;20195;-68
2023/10/06 07:50:02;;;;;;;8.43;3.97;;;;;;;;;;4976504;28;20189;-68
2023/10/06 07:52:28;;;;;;;10.57;4.53;;;;;;;;;;4978105;28;20177;-69
2023/10/06 07:54:54;;;;;;;8.27;4.37;;;;;;;;;;4977613;28;20347;-70
2023/10/06 07:57:20;;;;;;;10.37;4.20;;;;;;;;;;4977181;28;20665;-69
2023/10/06 07:59:46;;;;;;;14.17;4.27;;;;;;;;;;4975963;28;20232;-69
2023/10/06 08:02:13;;;;;;;9.27;4.00;;;;;;;;;;4977166;28;20239;-69
2023/10/06 08:04:39;;;;;;;10.13;4.27;;;;;;;;;;4977186;28;20252;-69
2023/10/06 08:07:05;;;;;;;7.40;4.30;;;;;;;;;;4977231;28;20213;-69
2023/10/06 08:09:38;;;;;;;11.93;4.70;;;;;;;;;;4977073;28;20192;-69
2023/10/06 08:12:08;;;;;;;10.03;4.20;;;;;;;;;;4975608;28;20184;-69
2023/10/06 08:14:34;;;;;;;11.23;3.90;;;;;;;;;;4976966;28;20706;-69
2023/10/06 08:17:00;;;;;;;9.50;4.20;;;;;;;;;;4976796;28;20236;-69
2023/10/06 08:19:26;;;;;;;11.73;4.70;;;;;;;;;;4976564;28;20619;-68
2023/10/06 08:21:53;;;;;;;10.63;4.70;;;;;;;;;;4976798;28;20181;-69
2023/10/06 08:24:19;;;;;;;11.47;4.83;;;;;;;;;;4976595;28;20177;-69
2023/10/06 08:26:45;;;;;;;10.10;4.23;;;;;;;;;;4976773;28;20648;-70
2023/10/06 08:29:11;;;;;;;10.87;4.03;;;;;;;;;;4976780;28;20568;-69
2023/10/06 08:31:38;;;;;;;12.37;4.50;;;;;;;;;;4977104;28;20185;-69
2023/10/06 08:34:05;;;;;;;7.53;4.50;;;;;;;;;;4975226;28;20189;-70
2023/10/06 08:36:32;;;;;;;10.07;4.43;;;;;;;;;;4976412;28;20685;-70
2023/10/06 08:38:58;;;;;;;10.47;4.43;;;;;;;;;;4975304;28;20239;-69
2023/10/06 08:41:26;;;;;;;8.97;4.53;;;;;;;;;;4976547;28;20182;-69
2023/10/06 08:43:53;;;;;;;8.00;4.27;;;;;;;;;;4976491;28;20549;-68
2023/10/06 08:46:19;;;;;;;9.97;4.60;;;;;;;;;;4976941;28;20193;-69
2023/10/06 08:48:46;;;;;;;10.67;4.33;;;;;;;;;;4974921;28;20564;-68
2023/10/06 08:51:14;;;;;;;11.13;5.00;;;;;;;;;;4976505;28;20581;-69
2023/10/06 08:53:41;;;;;;;9.90;4.33;;;;;;;;;;4975220;28;20239;-69
2023/10/06 08:56:07;;;;;;;14.20;4.43;;;;;;;;;;4974389;28;20232;-69
2023/10/06 08:58:35;;;;;;;9.97;4.27;;;;;;;;;;4975946;28;20201;-68
2023/10/06 09:01:01;;;;;;;11.47;4.57;;;;;;;;;;4975813;28;20190;-69
2023/10/06 09:03:27;;;;;;;12.47;4.00;;;;;;;;;;4975818;28;20185;-70
2023/10/06 09:05:53;;;;;;;12.23;4.27;;;;;;;;;;4974311;28;20686;-69
2023/10/06 09:08:19;;;;;;;10.83;4.70;;;;;;;;;;4974344;28;20181;-68
2023/10/06 09:10:49;;;;;;;10.10;4.57;;;;;;;;;;4975575;28;20177;-69
2023/10/06 09:13:17;;;;;;;9.43;3.80;;;;;;;;;;4975554;28;20181;-69
2023/10/06 09:15:44;;;;;;;8.97;4.33;;;;;;;;;;4975454;28;20304;-69
2023/10/06 09:18:20;;;;;;;9.10;4.33;;;;;;;;;;4975502;28;20201;-68
2023/10/06 09:20:50;;;;;;;9.60;4.10;;;;;;;;;;4975521;28;20180;-68
2023/10/06 09:23:34;;;;;;;8.93;4.37;;;;;;;;;;4975305;28;20647;-69
2023/10/06 09:26:01;;;;;;;13.97;4.33;;;;;;;;;;4975359;28;20283;-68
2023/10/06 09:28:27;;;;;;;11.10;4.57;;;;;;;;;;4975556;28;20181;-68
2023/10/06 09:30:57;;;;;;;11.57;4.47;;;;;;;;;;4974114;28;20600;-69
2023/10/06 09:33:24;;;;;;;9.83;3.73;;;;;;;;;;4973996;28;20181;-69
2023/10/06 09:36:11;;;;;;;8.03;3.70;;;;;;;;;;4973756;28;20295;-69
2023/10/06 09:38:37;;;;;;;9.20;4.20;;;;;;;;;;4973752;28;20197;-69
2023/10/06 09:41:05;;;;;;;10.87;4.00;;;;;;;;;;4975108;28;20184;-69
2023/10/06 09:43:34;;;;;;;10.03;4.17;;;;;;;;;;4975026;28;20181;-69
2023/10/06 09:46:06;;;;;;;10.10;4.20;;;;;;;;;;4975095;28;20193;-69
2023/10/06 09:48:33;;;;;;;8.50;3.90;;;;;;;;;;4973573;28;20173;-68
2023/10/06 09:51:01;;;;;;;9.80;3.77;;;;;;;;;;4973681;28;20191;-68
2023/10/06 09:53:27;;;;;;;9.10;3.47;;;;;;;;;;4975218;28;20619;-68
2023/10/06 09:55:54;;;;;;;14.90;4.23;;;;;;;;;;4973285;28;20698;-68
2023/10/06 09:58:22;;;;;;;14.47;3.90;;;;;;;;;;4974798;28;20240;-68
2023/10/06 10:00:49;;;;;;;7.17;3.93;;;;;;;;;;4974827;28;20177;-68
2023/10/06 10:03:16;;;;;;;9.13;3.90;;;;;;;;;;4974897;28;20185;-69
2023/10/06 10:05:43;;;;;;;9.37;3.97;;;;;;;;;;4974512;28;20671;-69
2023/10/06 10:08:10;;;;;;;9.40;4.10;;;;;;;;;;4973137;28;20268;-68
2023/10/06 10:10:38;;;;;;;8.90;3.90;;;;;;;;;;4973405;28;20220;-68
2023/10/06 10:13:10;;;;;;;12.27;4.77;;;;;;;;;;4974587;28;20185;-67
2023/10/06 10:15:39;;;;;;;10.40;4.37;;;;;;;;;;4973388;28;20580;-67
2023/10/06 10:18:15;;;;;;;9.77;6.40;;;;;;;;;;4974340;28;20227;-67
2023/10/06 10:20:41;;;;;;;11.20;3.93;;;;;;;;;;4973345;28;20200;-67
2023/10/06 10:23:07;;;;;;;9.50;3.60;;;;;;;;;;4974475;28;20644;-66
2023/10/06 10:25:36;;;;;;;11.13;4.30;;;;;;;;;;4973353;28;20283;-67
2023/10/06 10:28:13;;;;;;;11.23;4.37;;;;;;;;;;4974298;28;20260;-67
2023/10/06 10:30:50;;;;;;;10.13;4.33;;;;;;;;;;4973352;28;20203;-66
2023/10/06 10:33:29;;;;;;;10.63;4.17;;;;;;;;;;4973012;28;20184;-67
2023/10/06 10:36:17;;;;;;;11.73;4.43;;;;;;;;;;4972918;28;20197;-67
2023/10/06 10:38:43;;;;;;;11.60;4.30;;;;;;;;;;4974569;28;20197;-66
2023/10/06 10:41:09;;;;;;;8.07;3.90;;;;;;;;;;4974062;28;20181;-66
2023/10/06 10:43:39;;;;;;;11.93;4.27;;;;;;;;;;4974013;28;20655;-67
2023/10/06 10:46:06;;;;;;;9.83;3.70;;;;;;;;;;4973849;28;20564;-67
2023/10/06 10:48:37;;;;;;;8.87;4.20;;;;;;;;;;4974309;28;20251;-66
2023/10/06 10:51:11;;;;;;;11.10;4.63;;;;;;;;;;4974104;28;20257;-66
2023/10/06 10:53:41;;;;;;;7.93;4.07;;;;;;;;;;4973108;28;20232;-67
2023/10/06 10:56:07;;;;;;;9.87;4.23;;;;;;;;;;4974232;28;20213;-66
2023/10/06 10:58:45;;;;;;;7.77;3.70;;;;;;;;;;4973989;28;20296;-67
2023/10/06 11:01:27;;;;;;;10.23;3.83;;;;;;;;;;4974175;28;20337;-67
2023/10/06 11:04:12;;;;;;;9.63;4.00;;;;;;;;;;4973909;28;20177;-66
2023/10/06 11:06:39;;;;;;;7.83;3.70;;;;;;;;;;4973928;28;20181;-67
2023/10/06 11:11:50;;;;;;;9.43;4.27;;;;;;;;;;4973987;28;20295;-67
2023/10/06 11:14:16;;;;;;;9.80;4.40;;;;;;;;;;4973942;28;20181;-67
2023/10/06 11:16:49;;;;;;;7.77;3.93;;;;;;;;;;4973762;28;20185;-67
2023/10/06 11:19:15;;;;;;;12.23;4.37;;;;;;;;;;4975255;28;20205;-67
2023/10/06 11:21:44;;;;;;;15.53;5.07;;;;;;;;;;4978027;28;20182;-67
2023/10/06 11:24:10;;;;;;;8.27;4.23;;;;;;;;;;4977658;28;20197;-67
2023/10/06 11:26:43;;;;;;;10.60;3.80;;;;;;;;;;4976055;28;20210;-67
2023/10/06 11:29:09;;;;;;;8.67;3.73;;;;;;;;;;4977765;28;20256;-67
2023/10/06 11:31:35;;;;;;;10.47;4.60;;;;;;;;;;4976082;28;20686;-67
2023/10/06 11:34:01;;;;;;;10.17;4.27;;;;;;;;;;4976031;28;20216;-67
2023/10/06 11:36:27;;;;;;;12.47;4.70;;;;;;;;;;4975972;28;20671;-68
2023/10/06 11:38:53;;;;;;;8.13;4.57;;;;;;;;;;4977680;28;20259;-68
2023/10/06 11:41:25;;;;;;;12.43;4.60;;;;;;;;;;4976127;28;20185;-67
2023/10/06 11:43:55;;;;;;;8.63;4.27;;;;;;;;;;4975962;28;20189;-67
2023/10/06 11:46:21;;;;;;;8.70;4.10;;;;;;;;;;4977235;28;20252;-67
2023/10/06 11:48:48;;;;;;;9.93;4.43;;;;;;;;;;4977186;28;20185;-67
2023/10/06 11:51:15;;;;;;;7.53;4.27;;;;;;;;;;4977429;28;20633;-67
2023/10/06 11:53:41;;;;;;;6.03;3.53;;;;;;;;;;4975760;28;20185;-67
2023/10/06 11:56:16;;;;;;;9.23;3.80;;;;;;;;;;4975516;28;20576;-67
2023/10/06 11:58:44;;;;;;;9.73;3.63;;;;;;;;;;4976823;28;20193;-67
2023/10/06 12:01:32;;;;;;;10.27;3.63;;;;;;;;;;4977535;28;20542;-68
2023/10/06 12:04:01;;;;;;;8.40;3.50;;;;;;;;;;4975946;28;20197;-68
2023/10/06 12:06:39;;;;;;;9.73;3.90;;;;;;;;;;4977640;28;20675;-68
2023/10/06 12:09:08;;;;;;;10.20;4.07;;;;;;;;;;4975742;28;20221;-67
2023/10/06 12:11:34;;;;;;;12.80;4.70;;;;;;;;;;4975906;28;20209;-68
2023/10/06 12:14:00;;;;;;;10.17;4.10;;;;;;;;;;4977337;28;20587;-68
2023/10/06 12:16:26;;;;;;;14.23;4.23;;;;;;;;;;4976914;28;20206;-68
2023/10/06 12:18:51;;;;;;;11.83;4.20;;;;;;;;;;4976802;28;20201;-68
2023/10/06 12:21:17;;;;;;;11.20;3.63;;;;;;;;;;4976744;28;20194;-68
2023/10/06 12:23:45;;;;;;;8.67;4.17;;;;;;;;;;4975366;28;20308;-68
2023/10/06 12:26:11;;;;;;;7.53;4.17;;;;;;;;;;4975020;28;20201;-68
2023/10/06 12:28:42;;;;;;;9.10;3.80;;;;;;;;;;4976325;28;20192;-67
2023/10/06 12:31:08;;;;;;;8.77;3.87;;;;;;;;;;4976502;28;20540;-69
2023/10/06 12:33:35;;;;;;;12.27;3.73;;;;;;;;;;4976376;28;20279;-68
2023/10/06 12:36:07;;;;;;;10.40;4.03;;;;;;;;;;4976145;28;20205;-68
2023/10/06 12:38:33;;;;;;;7.97;4.27;;;;;;;;;;4974733;28;20240;-67
2023/10/06 12:40:59;;;;;;;10.90;4.47;;;;;;;;;;4974700;28;20264;-67
2023/10/06 12:43:25;;;;;;;8.40;4.20;;;;;;;;;;4975947;28;20205;-67
2023/10/06 12:45:51;;;;;;;7.67;3.83;;;;;;;;;;4975835;28;20201;-67
2023/10/06 12:48:19;;;;;;;7.93;3.70;;;;;;;;;;4974369;28;20256;-67
2023/10/06 12:50:45;;;;;;;8.60;3.90;;;;;;;;;;4974382;28;20682;-67
2023/10/06 12:53:11;;;;;;;11.93;4.27;;;;;;;;;;4976038;28;20196;-67
2023/10/06 12:55:41;;;;;;;9.20;4.03;;;;;;;;;;4975643;28;20240;-67
2023/10/06 12:58:11;;;;;;;9.07;3.97;;;;;;;;;;4975642;28;20248;-67
2023/10/06 13:00:37;;;;;;;7.53;3.90;;;;;;;;;;4974375;28;20231;-67
2023/10/06 13:03:03;;;;;;;11.57;3.80;;;;;;;;;;4975652;28;20261;-67
2023/10/06 13:05:29;;;;;;;10.80;4.17;;;;;;;;;;4975226;28;20209;-66
2023/10/06 13:07:57;;;;;;;11.93;4.73;;;;;;;;;;4975749;28;20197;-66
2023/10/06 13:10:24;;;;;;;6.73;3.63;;;;;;;;;;4975669;28;20235;-67
2023/10/06 13:12:51;;;;;;;10.57;4.20;;;;;;;;;;4975393;28;20616;-67
2023/10/06 13:15:18;;;;;;;8.03;3.90;;;;;;;;;;4974077;28;20216;-70
2023/10/06 13:17:45;;;;;;;9.87;4.03;;;;;;;;;;4974006;28;20208;-66
2023/10/06 13:20:13;;;;;;;6.60;3.40;;;;;;;;;;4975554;28;20174;-67
2023/10/06 13:22:43;;;;;;;8.33;3.87;;;;;;;;;;4974016;28;20182;-66
2023/10/06 13:25:11;;;;;;;5.23;3.80;;;;;;;;;;4975666;28;20197;-66
2023/10/06 13:27:37;;;;;;;6.93;3.87;;;;;;;;;;4975228;28;20198;-66
2023/10/06 13:30:13;;;;;;;9.20;4.20;;;;;;;;;;4975192;28;20546;-68
2023/10/06 13:32:44;;;;;;;11.17;3.97;;;;;;;;;;4975364;28;20153;-68
2023/10/06 13:35:16;;;;;;;7.47;3.67;;;;;;;;;;4973688;28;20202;-68
2023/10/06 13:37:42;;;;;;;8.07;3.53;;;;;;;;;;4975053;28;20288;-66
2023/10/06 13:40:12;;;;;;;8.00;3.43;;;;;;;;;;4975155;28;20639;-67
2023/10/06 13:42:42;;;;;;;10.87;3.63;;;;;;;;;;4972691;28;20283;-67
2023/10/06 13:45:23;;;;;;;9.33;3.40;;;;;;;;;;4974573;28;20248;-66
2023/10/06 13:47:52;;;;;;;7.00;3.53;;;;;;;;;;4973384;28;20208;-68
2023/10/06 13:50:18;;;;;;;7.77;4.07;;;;;;;;;;4973343;28;20559;-67
2023/10/06 13:52:45;;;;;;;7.87;3.13;;;;;;;;;;4973115;28;20209;-67
2023/10/06 13:55:12;;;;;;;7.80;3.93;;;;;;;;;;4974607;28;20223;-67
2023/10/06 13:57:39;;;;;;;7.17;3.90;;;;;;;;;;4974571;28;20276;-68
2023/10/06 14:00:08;;;;;;;11.77;3.90;;;;;;;;;;4974360;28;20212;-67
2023/10/06 14:02:35;;;;;;;8.67;3.93;;;;;;;;;;4973004;28;20647;-66
2023/10/06 14:05:01;;;;;;;11.37;5.03;;;;;;;;;;4972821;28;20209;-67
2023/10/06 14:07:27;;;;;;;8.60;3.80;;;;;;;;;;4974311;28;20685;-67
2023/10/06 14:09:54;;;;;;;7.53;3.90;;;;;;;;;;4974206;28;20643;-67
2023/10/06 14:12:21;;;;;;;14.33;3.80;;;;;;;;;;4973001;28;20216;-66
2023/10/06 14:17:16;;;;;;;8.73;4.33;;;;;;;;;;4974885;28;20280;-68
2023/10/06 14:19:50;;;;;;;9.07;4.40;;;;;;;;;;4974093;28;20236;-68
2023/10/06 14:22:21;;;;;;;8.67;3.90;;;;;;;;;;4974212;28;20281;-68
2023/10/06 14:24:48;;;;;;;8.07;3.97;;;;;;;;;;4974171;28;20284;-68
2023/10/06 14:27:17;;;;;;;7.97;3.83;;;;;;;;;;4972809;28;20185;-68
2023/10/06 14:29:44;;;;;;;7.67;4.27;;;;;;;;;;4972896;28;20185;-68
2023/10/06 14:32:38;;;;;;;5.93;3.73;;;;;;;;;;4972875;28;20185;-68
2023/10/06 14:46:22;;;;;;;8.40;4.00;;;;;;;;;;4896057;29;20215;-68
2023/10/06 14:48:48;;;;;;;7.00;3.57;;;;;;;;;;4933924;28;20573;-68
2023/10/06 14:51:14;;;;;;;10.23;4.30;;;;;;;;;;4973751;28;20193;-68
2023/10/06 14:53:40;;;;;;;9.13;3.97;;;;;;;;;;4976613;28;20567;-68
2023/10/06 14:56:06;;;;;;;7.57;4.00;;;;;;;;;;4977790;28;20226;-68
2023/10/06 14:58:32;;;;;;;8.10;3.73;;;;;;;;;;4977964;28;20283;-68
2023/10/06 15:01:11;;;;;;;7.60;4.40;;;;;;;;;;4978065;28;20596;-69
2023/10/06 15:03:37;;;;;;;12.33;4.73;;;;;;;;;;4976536;28;20169;-68
2023/10/06 15:06:04;;;;;;;9.47;4.17;;;;;;;;;;4977762;28;20629;-68